createdAt,value
2023-04-09T00:01:40.899Z,3.70
2023-04-09T00:06:05.656Z,3.80
2023-04-09T00:10:33.631Z,3.70
2023-04-09T00:14:57.916Z,3.60
2023-04-09T00:19:23.803Z,3.60
2023-04-09T00:23:48.218Z,3.60
2023-04-09T00:28:15.896Z,3.50
2023-04-09T00:32:41.300Z,3.40
2023-04-09T00:37:05.558Z,3.40
2023-04-09T00:41:29.734Z,3.30
2023-04-09T00:45:55.766Z,3.20
2023-04-09T00:50:19.907Z,3.20
2023-04-09T00:54:44.088Z,3.10
2023-04-09T00:59:08.525Z,3.00
2023-04-09T01:03:40.207Z,2.90
2023-04-09T01:08:10.510Z,2.90
2023-04-09T01:12:47.468Z,2.80
2023-04-09T01:17:18.925Z,2.80
2023-04-09T01:21:46.501Z,2.80
2023-04-09T01:26:20.916Z,2.70
2023-04-09T01:30:55.329Z,2.70
2023-04-09T01:35:23.043Z,2.60
2023-04-09T01:39:48.252Z,2.60
2023-04-09T01:44:14.732Z,2.60
2023-04-09T01:48:36.358Z,2.60
2023-04-09T01:53:02.823Z,2.50
2023-04-09T01:57:28.321Z,2.50
2023-04-09T02:01:56.340Z,2.40
2023-04-09T02:06:32.817Z,2.40
2023-04-09T02:11:06.851Z,2.30
2023-04-09T02:15:34.950Z,2.30
2023-04-09T02:19:59.624Z,2.20
2023-04-09T02:24:38.558Z,2.20
2023-04-09T02:29:02.578Z,2.20
2023-04-09T02:33:26.367Z,2.20
2023-04-09T02:37:50.570Z,2.20
2023-04-09T02:42:16.080Z,2.20
2023-04-09T02:46:40.686Z,2.20
2023-04-09T02:51:09.468Z,2.10
2023-04-09T02:55:33.884Z,2.10
2023-04-09T02:59:59.621Z,2.10
2023-04-09T03:04:23.706Z,2.10
2023-04-09T03:08:47.571Z,2.10
2023-04-09T03:13:11.621Z,2.10
2023-04-09T03:17:42.068Z,2.10
2023-04-09T03:22:07.253Z,2.10
2023-04-09T03:26:38.657Z,2.00
2023-04-09T03:31:06.996Z,2.00
2023-04-09T03:35:31.945Z,2.00
2023-04-09T03:40:00.515Z,2.00
2023-04-09T03:44:27.987Z,2.00
2023-04-09T03:48:57.233Z,2.00
2023-04-09T03:53:32.413Z,2.00
2023-04-09T03:58:04.084Z,2.00
2023-04-09T04:02:33.946Z,2.00
2023-04-09T04:07:01.744Z,1.90
2023-04-09T04:11:30.755Z,1.80
2023-04-09T04:15:54.772Z,1.80
2023-04-09T04:20:23.442Z,1.80
2023-04-09T04:25:02.397Z,1.80
2023-04-09T04:29:31.737Z,1.80
2023-04-09T04:33:58.232Z,1.90
2023-04-09T04:38:22.603Z,1.90
2023-04-09T04:42:47.683Z,2.00
2023-04-09T04:47:14.828Z,2.20
2023-04-09T04:51:39.258Z,2.40
2023-04-09T04:56:07.054Z,2.70
2023-04-09T05:00:31.234Z,3.00
2023-04-09T05:05:00.750Z,3.30
2023-04-09T05:09:32.050Z,3.70
2023-04-09T05:13:59.220Z,4.20
2023-04-09T05:18:23.494Z,4.60
2023-04-09T05:22:48.819Z,5.00
2023-04-09T05:27:13.658Z,5.50
2023-04-09T05:31:40.233Z,6.10
2023-04-09T05:36:09.666Z,6.60
2023-04-09T05:40:35.513Z,7.30
2023-04-09T05:45:03.784Z,7.80
2023-04-09T05:49:28.226Z,8.30
2023-04-09T05:53:54.708Z,8.70
2023-04-09T05:58:21.354Z,8.90
2023-04-09T06:02:46.605Z,8.80
2023-04-09T06:07:10.824Z,8.40
2023-04-09T06:11:34.957Z,8.40
2023-04-09T06:16:00.623Z,9.00
2023-04-09T06:20:24.624Z,9.90
2023-04-09T06:24:44.666Z,10.90
2023-04-09T06:29:08.517Z,12.10
2023-04-09T06:33:34.386Z,13.30
2023-04-09T06:37:58.636Z,14.40
2023-04-09T06:42:22.546Z,15.40
2023-04-09T06:46:53.506Z,16.00
2023-04-09T06:51:19.487Z,16.30
2023-04-09T06:55:43.347Z,15.80
2023-04-09T07:00:08.550Z,15.20
2023-04-09T07:04:32.649Z,15.00
2023-04-09T07:08:58.089Z,15.10
2023-04-09T07:13:22.395Z,15.20
2023-04-09T07:17:46.354Z,15.20
2023-04-09T07:22:10.505Z,15.10
2023-04-09T07:26:35.958Z,15.30
2023-04-09T07:31:01.615Z,15.40
2023-04-09T07:35:25.595Z,15.40
2023-04-09T07:39:51.431Z,15.70
2023-04-09T07:44:16.815Z,16.00
2023-04-09T07:48:40.902Z,16.30
2023-04-09T07:53:04.971Z,16.90
2023-04-09T07:57:29.011Z,17.50
2023-04-09T08:01:56.398Z,17.50
2023-04-09T08:06:23.445Z,17.10
2023-04-09T08:10:48.007Z,16.90
2023-04-09T08:15:12.198Z,17.00
2023-04-09T08:19:39.789Z,17.10
2023-04-09T08:24:06.043Z,16.90
2023-04-09T08:28:30.040Z,16.60
2023-04-09T08:32:54.325Z,16.50
2023-04-09T08:37:19.520Z,16.60
2023-04-09T08:41:44.443Z,17.40
2023-04-09T08:46:08.234Z,18.40
2023-04-09T08:50:32.538Z,19.20
2023-04-09T08:54:58.335Z,19.50
2023-04-09T08:59:22.504Z,19.90
2023-04-09T09:03:59.371Z,20.30
2023-04-09T09:08:25.962Z,20.70
2023-04-09T09:12:51.826Z,20.90
2023-04-09T09:17:16.194Z,21.40
2023-04-09T09:21:41.862Z,22.00
2023-04-09T09:26:14.220Z,22.70
2023-04-09T09:30:41.095Z,23.30
2023-04-09T09:35:06.458Z,23.70
2023-04-09T09:39:44.996Z,24.30
2023-04-09T09:44:10.426Z,24.70
2023-04-09T09:48:32.346Z,25.00
2023-04-09T09:53:01.743Z,25.30
2023-04-09T09:57:28.242Z,25.40
2023-04-09T10:01:58.070Z,25.50
2023-04-09T10:06:24.308Z,25.60
2023-04-09T10:10:48.636Z,25.70
2023-04-09T10:15:12.914Z,25.70
2023-04-09T10:19:40.978Z,25.70
2023-04-09T10:24:08.196Z,25.90
2023-04-09T10:28:32.339Z,26.10
2023-04-09T10:32:56.606Z,26.40
2023-04-09T10:37:23.633Z,26.60
2023-04-09T10:41:50.045Z,26.60
2023-04-09T10:46:31.135Z,26.40
2023-04-09T10:50:55.336Z,26.00
2023-04-09T10:55:38.730Z,25.90
2023-04-09T11:00:04.412Z,26.00
2023-04-09T11:04:39.014Z,26.20
2023-04-09T11:09:03.860Z,26.20
2023-04-09T11:13:28.636Z,25.90
2023-04-09T11:17:54.047Z,25.60
2023-04-09T11:22:18.220Z,25.30
2023-04-09T11:26:42.153Z,25.30
2023-04-09T11:31:07.023Z,25.10
2023-04-09T11:35:35.607Z,24.70
2023-04-09T11:40:00.995Z,24.40
2023-04-09T11:44:25.104Z,24.10
2023-04-09T11:48:49.884Z,23.60
2023-04-09T11:53:22.129Z,23.30
2023-04-09T11:57:47.401Z,23.00
2023-04-09T12:02:11.362Z,22.60
2023-04-09T12:06:42.676Z,22.30
2023-04-09T12:11:13.943Z,21.90
2023-04-09T12:15:41.079Z,21.30
2023-04-09T12:20:07.045Z,20.40
2023-04-09T12:24:31.089Z,19.50
2023-04-09T12:28:56.312Z,18.70
2023-04-09T12:33:20.552Z,18.10
2023-04-09T12:37:44.781Z,17.60
2023-04-09T12:42:08.634Z,17.20
2023-04-09T12:46:33.941Z,16.70
2023-04-09T12:50:57.856Z,16.20
2023-04-09T12:55:22.225Z,15.90
2023-04-09T12:59:50.394Z,15.60
2023-04-09T13:04:16.396Z,15.30
2023-04-09T13:08:40.610Z,15.10
2023-04-09T13:13:04.523Z,15.10
2023-04-09T13:17:28.574Z,15.00
2023-04-09T13:21:54.016Z,15.10
2023-04-09T13:26:21.151Z,15.10
2023-04-09T13:30:45.639Z,15.00
2023-04-09T13:35:10.962Z,15.00
2023-04-09T13:39:36.341Z,14.90
2023-04-09T13:44:00.923Z,14.80
2023-04-09T13:48:25.555Z,14.80
2023-04-09T13:52:49.551Z,14.80
2023-04-09T13:57:15.040Z,14.80
2023-04-09T14:01:39.146Z,14.90
2023-04-09T14:06:03.521Z,14.80
2023-04-09T14:10:27.734Z,14.80
2023-04-09T14:14:53.475Z,14.80
2023-04-09T14:19:19.606Z,14.70
2023-04-09T14:23:43.498Z,14.70
2023-04-09T14:28:07.543Z,14.60
2023-04-09T14:32:33.209Z,14.60
2023-04-09T14:36:57.019Z,14.50
2023-04-09T14:41:21.689Z,14.50
2023-04-09T14:45:46.227Z,14.50
2023-04-09T14:50:12.953Z,14.40
2023-04-09T14:54:37.897Z,14.50
2023-04-09T14:59:02.112Z,14.50
2023-04-09T15:03:26.479Z,14.50
2023-04-09T15:07:51.775Z,14.60
2023-04-09T15:12:15.715Z,14.60
2023-04-09T15:16:39.697Z,14.70
2023-04-09T15:21:03.621Z,14.70
2023-04-09T15:25:28.998Z,14.70
2023-04-09T15:29:53.275Z,14.70
2023-04-09T15:34:17.368Z,14.70
2023-04-09T15:38:41.361Z,14.70
2023-04-09T15:43:06.671Z,14.60
2023-04-09T15:47:33.092Z,14.60
2023-04-09T15:51:57.322Z,14.50
2023-04-09T15:56:21.828Z,14.60
2023-04-09T16:00:50.351Z,14.50
2023-04-09T16:05:14.536Z,14.50
2023-04-09T16:09:39.516Z,14.50
2023-04-09T16:14:03.472Z,14.40
2023-04-09T16:18:38.363Z,14.30
2023-04-09T16:23:02.438Z,14.30
2023-04-09T16:27:26.735Z,14.30
2023-04-09T16:31:54.332Z,14.30
2023-04-09T16:36:21.594Z,14.30
2023-04-09T16:40:48.709Z,14.20
2023-04-09T16:45:12.996Z,14.10
2023-04-09T16:49:37.003Z,14.00
2023-04-09T16:54:02.584Z,13.90
2023-04-09T16:58:30.968Z,13.80
2023-04-09T17:02:55.618Z,13.60
2023-04-09T17:07:21.814Z,13.60
2023-04-09T17:11:53.142Z,13.50
2023-04-09T17:16:21.212Z,13.30
2023-04-09T17:20:47.852Z,13.30
2023-04-09T17:25:22.971Z,13.20
2023-04-09T17:29:51.794Z,13.10
2023-04-09T17:34:21.917Z,13.10
2023-04-09T17:38:50.161Z,13.00
2023-04-09T17:43:17.691Z,13.00
2023-04-09T17:47:43.372Z,12.90
2023-04-09T17:52:10.421Z,12.80
2023-04-09T17:56:42.329Z,12.80
2023-04-09T18:01:17.141Z,12.70
2023-04-09T18:05:43.054Z,12.70
2023-04-09T18:10:18.927Z,12.60
2023-04-09T18:14:46.707Z,12.50
2023-04-09T18:19:08.974Z,12.40
2023-04-09T18:23:31.647Z,12.30
2023-04-09T18:27:51.399Z,12.20
2023-04-09T18:32:10.536Z,12.00
2023-04-09T18:36:47.428Z,11.90
2023-04-09T18:41:16.749Z,11.80
2023-04-09T18:45:40.879Z,11.60
2023-04-09T18:50:09.039Z,11.50
2023-04-09T18:54:34.885Z,11.40
2023-04-09T18:59:02.688Z,11.30
2023-04-09T19:03:28.698Z,11.20
2023-04-09T19:07:59.753Z,11.10
2023-04-09T19:12:23.909Z,10.90
2023-04-09T19:16:49.823Z,10.80
2023-04-09T19:21:23.952Z,10.80
2023-04-09T19:25:53.432Z,10.70
2023-04-09T19:30:17.852Z,10.60
2023-04-09T19:34:44.194Z,10.60
2023-04-09T19:39:11.124Z,10.50
2023-04-09T19:43:39.385Z,10.50
2023-04-09T19:48:03.399Z,10.50
2023-04-09T19:52:33.170Z,10.40
2023-04-09T19:56:57.739Z,10.30
2023-04-09T20:01:24.804Z,10.30
2023-04-09T20:05:56.116Z,10.30
2023-04-09T20:10:24.007Z,10.20
2023-04-09T20:14:49.503Z,10.10
2023-04-09T20:19:23.813Z,10.10
2023-04-09T20:24:04.068Z,10.00
2023-04-09T20:28:42.751Z,9.90
2023-04-09T20:33:45.627Z,9.70
2023-04-09T20:38:20.532Z,9.60
2023-04-09T20:42:44.807Z,9.50
2023-04-09T20:47:10.203Z,9.30
2023-04-09T20:51:35.343Z,9.20
2023-04-09T20:56:14.027Z,9.00
2023-04-09T21:00:49.148Z,8.90
2023-04-09T21:05:22.571Z,8.90
2023-04-09T21:09:48.412Z,8.80
2023-04-09T21:14:13.548Z,8.70
2023-04-09T21:18:37.931Z,8.60
2023-04-09T21:23:05.823Z,8.50
2023-04-09T21:27:30.120Z,8.50
2023-04-09T21:31:54.083Z,8.40
2023-04-09T21:36:18.339Z,8.20
2023-04-09T21:40:43.676Z,8.30
2023-04-09T21:45:08.969Z,8.20
2023-04-09T21:49:33.673Z,8.20
2023-04-09T21:54:04.932Z,8.10
2023-04-09T21:58:31.777Z,8.00
2023-04-09T22:03:01.435Z,7.90
2023-04-09T22:07:25.924Z,7.90
2023-04-09T22:11:49.974Z,7.80
2023-04-09T22:16:17.105Z,7.70
2023-04-09T22:20:41.269Z,7.60
2023-04-09T22:25:08.817Z,7.60
2023-04-09T22:29:38.007Z,7.60
2023-04-09T22:34:19.443Z,7.60
2023-04-09T22:38:49.779Z,7.60
2023-04-09T22:43:13.738Z,7.50
2023-04-09T22:47:38.015Z,7.50
2023-04-09T22:52:05.453Z,7.50
2023-04-09T22:56:30.188Z,7.40
2023-04-09T23:00:54.387Z,7.40
2023-04-09T23:05:18.968Z,7.40
2023-04-09T23:09:45.895Z,7.30
2023-04-09T23:14:09.678Z,7.30
2023-04-09T23:18:34.235Z,7.20
2023-04-09T23:22:58.043Z,7.10
2023-04-09T23:27:28.289Z,7.00
2023-04-09T23:31:52.286Z,7.00
2023-04-09T23:36:16.188Z,7.00
2023-04-09T23:40:40.222Z,6.90
2023-04-09T23:45:06.745Z,6.80
2023-04-09T23:49:30.904Z,6.80
2023-04-09T23:53:55.068Z,6.70
2023-04-09T23:58:19.199Z,6.60
